Terminal Aerodrome Forecast
Issued by NWS

Home | Current Version | Previous Version | Text Only | Print | Product List | Glossary On
Versions: 1 2 3 4 5 6 7 8 9 10 11 12 13 14 15 16 17 18 19 20 21 22 23 24 25 26 27 28 29 30 31 32 33 34 35 36 37 38
937
FTUS41 KPBZ 221741
TAFMGW
TAF
KMGW 221741Z 2218/2318 15006KT P6SM BKN250
     FM230900 17008KT P6SM OVC150 WS020/22040KT
     FM231500 19010G18KT P6SM -RA OVC050=

USA.gov is the U.S. government's official web portal to all federal, state and local government web resources and services.